createdAt,value
2023-03-24T00:00:59.340Z,6.30
2023-03-24T00:03:31.358Z,5.70
2023-03-24T00:06:04.281Z,5.60
2023-03-24T00:08:36.876Z,6.50
2023-03-24T00:11:11.005Z,6.30
2023-03-24T00:13:42.050Z,5.70
2023-03-24T00:16:16.317Z,6.00
2023-03-24T00:18:52.426Z,6.20
2023-03-24T00:21:25.031Z,6.60
2023-03-24T00:23:58.414Z,6.50
2023-03-24T00:26:29.730Z,6.60
2023-03-24T00:29:01.520Z,7.30
2023-03-24T00:31:33.533Z,6.10
2023-03-24T00:34:06.198Z,5.90
2023-03-24T00:36:37.178Z,6.60
2023-03-24T00:39:08.085Z,6.20
2023-03-24T00:41:39.058Z,6.50
2023-03-24T00:44:17.251Z,6.10
2023-03-24T00:46:56.399Z,6.80
2023-03-24T00:49:41.572Z,7.10
2023-03-24T00:52:17.493Z,7.10
2023-03-24T00:54:57.605Z,7.70
2023-03-24T00:57:34.153Z,7.10
2023-03-24T01:00:18.126Z,7.20
2023-03-24T01:05:29.841Z,7.40
2023-03-24T01:08:03.950Z,7.10
2023-03-24T01:10:49.609Z,7.90
2023-03-24T01:13:25.861Z,7.90
2023-03-24T01:15:57.062Z,7.80
2023-03-24T01:18:28.000Z,8.40
2023-03-24T01:21:00.659Z,8.20
2023-03-24T01:23:31.569Z,8.40
2023-03-24T01:26:07.232Z,8.90
2023-03-24T01:28:40.334Z,8.90
2023-03-24T01:31:11.521Z,9.80
2023-03-24T01:33:42.700Z,11.20
2023-03-24T01:36:13.749Z,10.30
2023-03-24T01:38:44.683Z,10.70
2023-03-24T01:41:15.548Z,10.80
2023-03-24T01:43:46.419Z,10.60
2023-03-24T01:46:22.366Z,11.40
2023-03-24T01:49:02.097Z,10.60
2023-03-24T01:51:44.876Z,11.20
2023-03-24T01:54:31.586Z,11.20
2023-03-24T01:57:09.660Z,10.50
2023-03-24T01:59:44.741Z,10.50
2023-03-24T02:02:21.469Z,10.60
2023-03-24T02:04:57.997Z,10.80
2023-03-24T02:07:37.373Z,10.70
2023-03-24T02:10:17.007Z,10.60
2023-03-24T02:12:48.300Z,11.30
2023-03-24T02:15:19.686Z,11.40
2023-03-24T02:17:53.960Z,12.10
2023-03-24T02:20:31.249Z,13.30
2023-03-24T02:23:33.250Z,12.50
2023-03-24T02:26:46.729Z,13.30
2023-03-24T02:29:50.695Z,13.00
2023-03-24T02:32:56.537Z,14.20
2023-03-24T02:35:55.077Z,13.40
2023-03-24T02:38:47.057Z,14.90
2023-03-24T02:41:26.666Z,15.40
2023-03-24T02:44:20.224Z,13.90
2023-03-24T02:47:14.168Z,13.90
2023-03-24T02:49:59.985Z,14.80
2023-03-24T02:52:40.428Z,14.20
2023-03-24T02:55:24.850Z,14.60
2023-03-24T02:58:02.669Z,14.40
2023-03-24T03:00:48.295Z,16.00
2023-03-24T03:03:30.497Z,15.50
2023-03-24T03:06:08.555Z,15.30
2023-03-24T03:08:41.280Z,15.20
2023-03-24T03:11:14.821Z,15.00
2023-03-24T03:13:57.177Z,14.50
2023-03-24T03:16:53.428Z,15.70
2023-03-24T03:19:33.004Z,15.10
2023-03-24T03:22:10.661Z,14.20
2023-03-24T03:24:46.291Z,14.60
2023-03-24T03:27:22.054Z,15.30
2023-03-24T03:29:59.633Z,16.40
2023-03-24T03:32:35.148Z,15.70
2023-03-24T03:35:42.101Z,16.80
2023-03-24T03:38:22.657Z,16.80
2023-03-24T03:40:58.739Z,16.70
2023-03-24T03:43:31.482Z,18.30
2023-03-24T03:46:05.744Z,17.70
2023-03-24T03:48:39.421Z,17.90
2023-03-24T03:53:51.998Z,17.40
2023-03-24T03:56:27.725Z,17.40
2023-03-24T03:58:58.861Z,16.90
2023-03-24T04:01:33.645Z,17.60
2023-03-24T04:04:08.702Z,17.00
2023-03-24T04:07:07.449Z,17.20
2023-03-24T04:10:32.588Z,15.80
2023-03-24T04:16:06.347Z,16.10
2023-03-24T04:18:45.046Z,16.40
2023-03-24T04:21:27.739Z,16.10
2023-03-24T04:24:26.139Z,16.30
2023-03-24T04:27:08.751Z,18.10
2023-03-24T04:30:17.096Z,16.00
2023-03-24T04:32:48.072Z,15.90
2023-03-24T04:35:30.942Z,16.80
2023-03-24T04:38:12.509Z,16.80
2023-03-24T04:40:46.102Z,16.70
2023-03-24T04:45:56.968Z,16.40
2023-03-24T04:48:28.034Z,15.50
2023-03-24T04:51:02.627Z,15.80
2023-03-24T04:53:33.515Z,15.10
2023-03-24T04:56:29.025Z,16.80
2023-03-24T04:59:00.063Z,17.10
2023-03-24T05:01:31.060Z,18.30
2023-03-24T05:04:03.695Z,17.90
2023-03-24T05:06:34.609Z,16.50
2023-03-24T05:09:05.507Z,17.40
2023-03-24T05:11:37.125Z,17.50
2023-03-24T05:14:08.123Z,18.40
2023-03-24T05:16:39.079Z,18.20
2023-03-24T05:19:12.105Z,20.00
2023-03-24T05:21:42.979Z,19.00
2023-03-24T05:24:13.886Z,18.90
2023-03-24T05:26:45.061Z,19.00
2023-03-24T05:29:16.001Z,19.90
2023-03-24T05:31:46.982Z,19.60
2023-03-24T05:34:17.929Z,17.20
2023-03-24T05:36:48.837Z,17.10
2023-03-24T05:39:20.192Z,18.00
2023-03-24T05:41:51.118Z,16.00
2023-03-24T05:44:22.144Z,16.80
2023-03-24T05:46:53.045Z,15.70
2023-03-24T05:49:23.931Z,15.50
2023-03-24T05:51:55.482Z,14.40
2023-03-24T05:54:26.487Z,14.60
2023-03-24T05:56:58.720Z,12.60
2023-03-24T05:59:30.428Z,14.30
2023-03-24T06:02:01.428Z,13.40
2023-03-24T06:04:32.835Z,13.80
2023-03-24T06:07:04.021Z,13.40
2023-03-24T06:09:38.208Z,13.20
2023-03-24T06:12:10.711Z,13.20
2023-03-24T06:14:42.440Z,12.80
2023-03-24T06:17:16.307Z,12.00
2023-03-24T06:19:51.719Z,12.70
2023-03-24T06:22:22.648Z,12.40
2023-03-24T06:24:55.919Z,12.30
2023-03-24T06:27:29.568Z,11.90
2023-03-24T06:32:31.313Z,12.00
2023-03-24T06:35:02.293Z,14.80
2023-03-24T06:37:33.361Z,11.40
2023-03-24T06:40:12.316Z,11.90
2023-03-24T06:42:43.350Z,12.40
2023-03-24T06:45:14.915Z,10.50
2023-03-24T06:47:45.928Z,11.40
2023-03-24T06:50:16.980Z,11.80
2023-03-24T06:52:47.915Z,11.20
2023-03-24T06:55:19.374Z,11.00
2023-03-24T06:57:50.376Z,11.80
2023-03-24T07:00:21.415Z,12.20
2023-03-24T07:02:52.751Z,11.10
2023-03-24T07:05:23.920Z,10.10
2023-03-24T07:08:27.987Z,10.10
2023-03-24T07:10:45.981Z,10.30
2023-03-24T07:13:17.113Z,10.00
2023-03-24T07:15:51.513Z,10.90
2023-03-24T07:18:22.533Z,10.40
2023-03-24T07:20:53.567Z,10.30
2023-03-24T07:23:26.782Z,9.80
2023-03-24T07:25:57.899Z,10.00
2023-03-24T07:28:28.926Z,8.60
2023-03-24T07:31:04.710Z,8.60
2023-03-24T07:33:37.608Z,7.90
2023-03-24T07:36:08.863Z,8.10
2023-03-24T07:38:40.061Z,7.70
2023-03-24T07:41:10.936Z,8.00
2023-03-24T07:43:41.816Z,8.00
2023-03-24T07:46:12.871Z,8.00
2023-03-24T07:48:43.931Z,7.90
2023-03-24T07:51:15.963Z,7.90
2023-03-24T07:53:47.206Z,7.90
2023-03-24T07:56:18.152Z,8.00
2023-03-24T07:58:52.036Z,7.50
2023-03-24T08:01:23.190Z,7.70
2023-03-24T08:03:54.594Z,7.40
2023-03-24T08:06:25.645Z,7.90
2023-03-24T08:08:56.776Z,8.20
2023-03-24T08:11:28.021Z,8.00
2023-03-24T08:13:58.978Z,8.70
2023-03-24T08:16:30.061Z,9.10
2023-03-24T08:19:01.097Z,9.60
2023-03-24T08:21:32.101Z,10.00
2023-03-24T08:24:03.188Z,10.10
2023-03-24T08:26:34.703Z,9.80
2023-03-24T08:29:05.600Z,9.90
2023-03-24T08:31:36.729Z,10.20
2023-03-24T08:34:10.962Z,10.60
2023-03-24T08:36:42.335Z,10.70
2023-03-24T08:39:13.288Z,11.50
2023-03-24T08:41:44.762Z,11.80
2023-03-24T08:44:16.635Z,11.40
2023-03-24T08:46:47.608Z,11.90
2023-03-24T08:49:18.558Z,12.30
2023-03-24T08:51:49.618Z,12.30
2023-03-24T08:54:23.004Z,12.20
2023-03-24T08:56:53.932Z,12.60
2023-03-24T08:59:24.973Z,12.20
2023-03-24T09:01:56.034Z,12.30
2023-03-24T09:04:27.078Z,13.30
2023-03-24T09:07:00.991Z,13.50
2023-03-24T09:09:34.035Z,14.60
2023-03-24T09:12:05.605Z,13.40
2023-03-24T09:14:36.532Z,14.90
2023-03-24T09:17:07.565Z,13.20
2023-03-24T09:19:38.626Z,13.30
2023-03-24T09:22:11.040Z,12.70
2023-03-24T09:24:43.674Z,13.40
2023-03-24T09:27:16.059Z,13.30
2023-03-24T09:29:47.537Z,14.00
2023-03-24T09:32:18.481Z,12.90
2023-03-24T09:34:49.466Z,12.80
2023-03-24T09:37:20.813Z,12.20
2023-03-24T09:39:53.628Z,11.60
2023-03-24T09:42:27.972Z,12.50
2023-03-24T09:45:05.040Z,11.60
2023-03-24T09:47:57.293Z,11.00
2023-03-24T09:50:50.674Z,11.70
2023-03-24T09:53:39.936Z,11.00
2023-03-24T09:56:14.139Z,10.70
2023-03-24T09:58:50.691Z,10.00
2023-03-24T10:01:24.363Z,10.80
2023-03-24T10:03:58.381Z,10.40
2023-03-24T10:06:41.653Z,10.10
2023-03-24T10:09:23.445Z,12.20
2023-03-24T10:12:20.508Z,11.40
2023-03-24T10:15:14.123Z,11.90
2023-03-24T10:17:59.874Z,11.60
2023-03-24T10:20:53.094Z,12.30
2023-03-24T10:23:51.004Z,12.50
2023-03-24T10:26:44.172Z,14.00
2023-03-24T10:29:19.621Z,14.90
2023-03-24T10:31:56.912Z,14.80
2023-03-24T10:34:31.942Z,15.20
2023-03-24T10:37:04.337Z,15.00
2023-03-24T10:39:44.338Z,13.70
2023-03-24T10:42:21.480Z,13.80
2023-03-24T10:44:52.786Z,13.40
2023-03-24T10:47:26.567Z,12.40
2023-03-24T10:50:00.598Z,14.00
2023-03-24T10:52:40.116Z,12.20
2023-03-24T10:55:16.416Z,11.50
2023-03-24T10:57:58.561Z,12.90
2023-03-24T11:00:31.687Z,12.20
2023-03-24T11:03:12.007Z,10.90
2023-03-24T11:05:45.307Z,10.60
2023-03-24T11:08:16.125Z,10.00
2023-03-24T11:10:47.069Z,9.40
2023-03-24T11:13:25.878Z,9.20
2023-03-24T11:16:14.244Z,8.90
2023-03-24T11:18:56.366Z,9.70
2023-03-24T11:21:34.278Z,8.60
2023-03-24T11:24:12.068Z,8.00
2023-03-24T11:27:03.097Z,8.60
2023-03-24T11:29:39.325Z,8.60
2023-03-24T11:32:20.231Z,8.00
2023-03-24T11:35:01.813Z,8.80
2023-03-24T11:37:35.433Z,9.40
2023-03-24T11:40:12.090Z,9.90
2023-03-24T11:42:53.947Z,8.60
2023-03-24T11:45:40.927Z,10.30
2023-03-24T11:48:49.188Z,8.20
2023-03-24T11:51:34.416Z,7.10
2023-03-24T11:54:12.409Z,7.30
2023-03-24T11:56:53.219Z,7.20
2023-03-24T11:59:34.080Z,6.10
2023-03-24T12:02:08.031Z,6.10
2023-03-24T12:04:59.028Z,5.80
2023-03-24T12:07:49.033Z,5.80
2023-03-24T12:10:48.577Z,6.00
2023-03-24T12:13:51.407Z,5.60
2023-03-24T12:16:36.748Z,5.70
2023-03-24T12:19:53.947Z,5.60
2023-03-24T12:22:27.685Z,5.40
2023-03-24T12:25:02.545Z,5.70
2023-03-24T12:28:10.457Z,5.60
2023-03-24T12:31:46.663Z,5.90
2023-03-24T12:34:20.465Z,5.80
2023-03-24T12:39:36.842Z,5.70
2023-03-24T12:42:12.126Z,5.70
2023-03-24T12:44:58.174Z,6.00
2023-03-24T12:47:33.415Z,6.20
2023-03-24T12:50:25.812Z,5.90
2023-03-24T12:53:30.689Z,6.50
2023-03-24T12:56:23.830Z,6.70
2023-03-24T12:59:02.390Z,6.20
2023-03-24T13:01:43.133Z,6.00
2023-03-24T13:04:21.975Z,5.50
2023-03-24T13:07:01.023Z,6.40
2023-03-24T13:09:52.594Z,5.90
2023-03-24T13:12:38.325Z,5.40
2023-03-24T13:15:09.616Z,5.60
2023-03-24T13:18:09.205Z,6.50
2023-03-24T13:20:55.403Z,6.50
2023-03-24T13:23:40.952Z,7.30
2023-03-24T13:26:39.479Z,7.20
2023-03-24T13:29:38.389Z,7.00
2023-03-24T13:38:26.055Z,7.10
2023-03-24T13:40:58.083Z,7.10
2023-03-24T13:43:35.258Z,6.10
2023-03-24T13:46:35.531Z,6.10
2023-03-24T13:49:12.853Z,5.50
2023-03-24T13:51:46.560Z,5.70
2023-03-24T13:54:25.382Z,6.20
2023-03-24T13:57:23.593Z,8.20
2023-03-24T14:00:22.468Z,5.90
2023-03-24T14:03:16.317Z,5.10
2023-03-24T14:06:00.685Z,5.20
2023-03-24T14:08:50.875Z,5.00
2023-03-24T14:11:31.685Z,5.30
2023-03-24T14:14:18.653Z,6.10
2023-03-24T14:16:57.367Z,3.90
2023-03-24T14:19:40.643Z,4.30
2023-03-24T14:22:16.485Z,4.40
2023-03-24T14:24:59.175Z,4.40
2023-03-24T14:27:35.986Z,4.10
2023-03-24T14:30:11.265Z,4.70
2023-03-24T14:32:47.130Z,4.80
2023-03-24T14:35:45.211Z,5.00
2023-03-24T14:38:17.770Z,5.30
2023-03-24T14:41:06.230Z,5.10
2023-03-24T14:43:41.351Z,4.90
2023-03-24T14:46:22.116Z,5.20
2023-03-24T14:55:58.572Z,5.20
2023-03-24T14:58:39.181Z,5.20
2023-03-24T15:01:12.263Z,5.20
2023-03-24T15:03:57.793Z,4.60
2023-03-24T15:06:29.755Z,5.20
2023-03-24T15:09:05.528Z,4.90
2023-03-24T15:11:39.589Z,4.70
2023-03-24T15:14:23.563Z,4.70
2023-03-24T15:17:01.044Z,4.80
2023-03-24T15:19:33.790Z,4.90
2023-03-24T15:22:13.841Z,7.50
2023-03-24T15:24:52.509Z,5.40
2023-03-24T15:27:26.646Z,6.50
2023-03-24T15:30:00.113Z,5.20
2023-03-24T15:32:39.181Z,5.10
2023-03-24T15:35:16.140Z,5.30
2023-03-24T15:37:57.286Z,5.80
2023-03-24T15:40:30.524Z,5.60
2023-03-24T15:43:06.839Z,2.00
2023-03-24T15:45:51.050Z,2.30
2023-03-24T15:48:26.931Z,4.40
2023-03-24T15:51:00.631Z,6.90
2023-03-24T15:53:58.153Z,4.80
2023-03-24T15:56:32.093Z,3.50
2023-03-24T15:59:03.756Z,2.80
2023-03-24T16:01:38.760Z,3.00
2023-03-24T16:04:16.909Z,2.90
2023-03-24T16:06:53.548Z,2.80
2023-03-24T16:09:38.096Z,4.30
2023-03-24T16:14:47.133Z,6.50
2023-03-24T16:17:21.301Z,5.70
2023-03-24T16:19:56.003Z,4.20
2023-03-24T16:22:27.740Z,4.20
2023-03-24T16:25:02.471Z,5.20
2023-03-24T16:27:34.249Z,4.50
2023-03-24T16:30:38.088Z,4.50
2023-03-24T16:33:10.040Z,4.40
2023-03-24T16:35:41.828Z,4.10
2023-03-24T16:38:14.485Z,6.40
2023-03-24T16:40:51.821Z,7.70
2023-03-24T16:43:24.080Z,6.80
2023-03-24T16:45:55.784Z,6.30
2023-03-24T16:48:27.645Z,5.80
2023-03-24T16:50:59.281Z,5.90
2023-03-24T16:53:30.938Z,7.10
2023-03-24T16:56:02.594Z,7.00
2023-03-24T16:58:34.329Z,7.70
2023-03-24T17:01:39.784Z,8.90
2023-03-24T17:04:16.364Z,7.00
2023-03-24T17:06:54.325Z,6.80
2023-03-24T17:09:26.882Z,6.40
2023-03-24T17:12:00.681Z,6.50
2023-03-24T17:17:04.545Z,6.70
2023-03-24T17:19:36.147Z,8.10
2023-03-24T17:22:07.751Z,7.40
2023-03-24T17:24:41.857Z,6.70
2023-03-24T17:27:18.021Z,6.00
2023-03-24T17:29:49.958Z,6.90
2023-03-24T17:32:22.381Z,6.30
2023-03-24T17:34:54.050Z,6.30
2023-03-24T17:37:30.564Z,5.60
2023-03-24T17:40:03.419Z,5.50
2023-03-24T17:42:35.564Z,9.20
2023-03-24T17:45:11.062Z,10.50
2023-03-24T17:47:43.255Z,11.60
2023-03-24T17:50:15.050Z,11.30
2023-03-24T17:52:47.989Z,9.40
2023-03-24T17:55:20.061Z,10.30
2023-03-24T17:57:51.605Z,11.80
2023-03-24T18:00:24.099Z,10.80
2023-03-24T18:02:55.803Z,14.10
2023-03-24T18:05:27.509Z,13.40
2023-03-24T18:08:01.348Z,10.90
2023-03-24T18:10:36.164Z,9.80
2023-03-24T18:13:08.177Z,10.30
2023-03-24T18:15:42.924Z,12.80
2023-03-24T18:18:14.639Z,14.50
2023-03-24T18:20:46.315Z,12.50
2023-03-24T18:23:20.812Z,16.50
2023-03-24T18:26:08.219Z,11.50
2023-03-24T18:28:39.963Z,10.00
2023-03-24T18:31:15.933Z,11.50
2023-03-24T18:33:54.285Z,9.60
2023-03-24T18:36:29.160Z,11.10
2023-03-24T18:39:04.489Z,11.40
2023-03-24T18:41:39.642Z,11.10
2023-03-24T18:44:13.292Z,12.40
2023-03-24T18:46:45.004Z,13.30
2023-03-24T18:49:16.617Z,14.90
2023-03-24T18:51:48.247Z,17.80
2023-03-24T18:54:19.863Z,14.70
2023-03-24T18:56:51.568Z,14.20
2023-03-24T18:59:24.193Z,13.90
2023-03-24T19:02:00.857Z,15.30
2023-03-24T19:04:34.657Z,13.70
2023-03-24T19:09:48.772Z,11.90
2023-03-24T19:12:20.426Z,9.40
2023-03-24T19:14:56.094Z,10.10
2023-03-24T19:17:28.128Z,10.50
2023-03-24T19:19:59.688Z,9.50
2023-03-24T19:22:31.341Z,10.00
2023-03-24T19:25:03.646Z,7.40
2023-03-24T19:27:35.336Z,8.10
2023-03-24T19:30:08.693Z,9.50
2023-03-24T19:32:40.617Z,8.20
2023-03-24T19:35:12.559Z,8.40
2023-03-24T19:37:44.240Z,7.00
2023-03-24T19:40:15.872Z,6.20
2023-03-24T19:42:47.613Z,6.90
2023-03-24T19:45:20.719Z,7.50
2023-03-24T19:47:52.370Z,8.10
2023-03-24T19:50:24.424Z,8.40
2023-03-24T19:52:56.091Z,8.70
2023-03-24T19:55:29.000Z,8.70
2023-03-24T19:58:01.030Z,8.70
2023-03-24T20:00:32.845Z,9.40
2023-03-24T20:03:05.493Z,8.80
2023-03-24T20:05:37.304Z,7.50
2023-03-24T20:08:08.899Z,6.70
2023-03-24T20:10:40.889Z,7.20
2023-03-24T20:13:12.581Z,7.30
2023-03-24T20:15:46.822Z,9.00
2023-03-24T20:18:18.470Z,9.80
2023-03-24T20:20:50.044Z,9.30
2023-03-24T20:23:22.623Z,9.10
2023-03-24T20:25:58.113Z,10.30
2023-03-24T20:28:30.395Z,13.80
2023-03-24T20:31:07.133Z,13.20
2023-03-24T20:33:38.941Z,13.10
2023-03-24T20:36:10.805Z,14.20
2023-03-24T20:38:45.856Z,16.80
2023-03-24T20:41:19.471Z,15.90
2023-03-24T20:43:51.470Z,14.20
2023-03-24T20:46:23.140Z,12.60
2023-03-24T20:48:55.021Z,13.30
2023-03-24T20:51:28.412Z,12.60
2023-03-24T20:54:00.115Z,12.50
2023-03-24T20:56:32.049Z,12.20
2023-03-24T20:59:07.507Z,10.60
2023-03-24T21:01:42.611Z,12.30
2023-03-24T21:04:16.331Z,12.10
2023-03-24T21:09:22.407Z,11.30
2023-03-24T21:11:54.324Z,11.60
2023-03-24T21:14:25.997Z,11.10
2023-03-24T21:16:57.867Z,15.00
2023-03-24T21:19:29.529Z,12.30
2023-03-24T21:22:03.207Z,10.20
2023-03-24T21:27:06.826Z,9.40
2023-03-24T21:29:38.482Z,9.70
2023-03-24T21:32:10.678Z,8.50
2023-03-24T21:34:42.799Z,11.50
2023-03-24T21:37:19.928Z,14.80
2023-03-24T21:39:54.429Z,12.70
2023-03-24T21:42:26.083Z,25.00
2023-03-24T21:45:10.910Z,11.50
2023-03-24T21:47:46.416Z,10.80
2023-03-24T21:50:23.506Z,10.20
2023-03-24T21:52:55.496Z,11.40
2023-03-24T21:55:27.887Z,13.40
2023-03-24T21:58:01.766Z,11.30
2023-03-24T22:00:40.102Z,9.80
2023-03-24T22:03:14.372Z,12.80
2023-03-24T22:05:48.851Z,11.80
2023-03-24T22:08:22.867Z,19.10
2023-03-24T22:10:58.374Z,14.10
2023-03-24T22:13:32.046Z,15.30
2023-03-24T22:18:37.113Z,10.20
2023-03-24T22:21:11.201Z,19.40
2023-03-24T22:23:43.631Z,13.70
2023-03-24T22:26:20.018Z,12.60
2023-03-24T22:28:51.702Z,11.40
2023-03-24T22:31:24.270Z,11.80
2023-03-24T22:33:56.393Z,12.00
2023-03-24T22:36:28.151Z,12.90
2023-03-24T22:38:59.932Z,12.40
2023-03-24T22:41:33.931Z,13.10
2023-03-24T22:44:06.698Z,11.90
2023-03-24T22:46:38.915Z,13.90
2023-03-24T22:49:10.545Z,13.10
2023-03-24T22:51:47.588Z,13.00
2023-03-24T22:54:19.227Z,12.70
2023-03-24T22:56:51.008Z,13.10
2023-03-24T22:59:24.175Z,12.40
